sensor_id;sensor_type;location;lat;lon;timestamp;P1;durP1;ratioP1;P2;durP2;ratioP2
25049;SDS011;13046;49.814;9.918;2022-10-18T00:00:36;10.32;;;6.68;;
25049;SDS011;13046;49.814;9.918;2022-10-18T00:03:02;11.02;;;6.07;;
25049;SDS011;13046;49.814;9.918;2022-10-18T00:05:28;13.52;;;6.72;;
25049;SDS011;13046;49.814;9.918;2022-10-18T00:07:54;10.63;;;6.78;;
25049;SDS011;13046;49.814;9.918;2022-10-18T00:10:21;9.60;;;6.53;;
25049;SDS011;13046;49.814;9.918;2022-10-18T00:12:48;8.65;;;7.28;;
25049;SDS011;13046;49.814;9.918;2022-10-18T00:15:15;13.77;;;6.43;;
25049;SDS011;13046;49.814;9.918;2022-10-18T00:17:41;8.25;;;6.50;;
25049;SDS011;13046;49.814;9.918;2022-10-18T00:20:07;7.95;;;6.28;;
25049;SDS011;13046;49.814;9.918;2022-10-18T00:22:34;15.95;;;6.75;;
25049;SDS011;13046;49.814;9.918;2022-10-18T00:25:00;8.70;;;6.65;;
25049;SDS011;13046;49.814;9.918;2022-10-18T00:27:30;11.35;;;6.97;;
25049;SDS011;13046;49.814;9.918;2022-10-18T00:29:56;11.95;;;6.32;;
25049;SDS011;13046;49.814;9.918;2022-10-18T00:32:22;12.63;;;6.38;;
25049;SDS011;13046;49.814;9.918;2022-10-18T00:34:48;9.05;;;6.70;;
25049;SDS011;13046;49.814;9.918;2022-10-18T00:37:15;10.52;;;6.95;;
25049;SDS011;13046;49.814;9.918;2022-10-18T00:39:41;9.70;;;6.53;;
25049;SDS011;13046;49.814;9.918;2022-10-18T00:42:09;7.10;;;5.47;;
25049;SDS011;13046;49.814;9.918;2022-10-18T00:47:04;8.82;;;6.25;;
25049;SDS011;13046;49.814;9.918;2022-10-18T00:49:33;13.00;;;6.30;;
25049;SDS011;13046;49.814;9.918;2022-10-18T00:52:07;10.25;;;7.60;;
25049;SDS011;13046;49.814;9.918;2022-10-18T00:54:34;14.65;;;7.00;;
25049;SDS011;13046;49.814;9.918;2022-10-18T00:57:01;12.38;;;7.93;;
25049;SDS011;13046;49.814;9.918;2022-10-18T00:59:28;15.35;;;7.03;;
25049;SDS011;13046;49.814;9.918;2022-10-18T01:01:54;8.88;;;8.00;;
25049;SDS011;13046;49.814;9.918;2022-10-18T01:04:21;8.35;;;6.53;;
25049;SDS011;13046;49.814;9.918;2022-10-18T01:14:41;13.15;;;5.97;;
25049;SDS011;13046;49.814;9.918;2022-10-18T01:17:20;11.95;;;6.15;;
25049;SDS011;13046;49.814;9.918;2022-10-18T01:22:27;11.18;;;6.53;;
25049;SDS011;13046;49.814;9.918;2022-10-18T01:25:02;10.70;;;7.85;;
25049;SDS011;13046;49.814;9.918;2022-10-18T01:32:48;20.88;;;6.93;;
25049;SDS011;13046;49.814;9.918;2022-10-18T01:35:17;8.80;;;7.10;;
25049;SDS011;13046;49.814;9.918;2022-10-18T01:37:45;13.38;;;7.47;;
25049;SDS011;13046;49.814;9.918;2022-10-18T01:40:12;15.07;;;7.32;;
25049;SDS011;13046;49.814;9.918;2022-10-18T01:42:39;11.77;;;6.70;;
25049;SDS011;13046;49.814;9.918;2022-10-18T01:45:05;8.45;;;6.88;;
25049;SDS011;13046;49.814;9.918;2022-10-18T01:47:33;11.07;;;7.03;;
25049;SDS011;13046;49.814;9.918;2022-10-18T01:49:59;7.90;;;6.60;;
25049;SDS011;13046;49.814;9.918;2022-10-18T01:52:27;13.13;;;7.18;;
25049;SDS011;13046;49.814;9.918;2022-10-18T01:54:53;9.45;;;6.97;;
25049;SDS011;13046;49.814;9.918;2022-10-18T01:57:36;16.80;;;7.13;;
25049;SDS011;13046;49.814;9.918;2022-10-18T02:07:52;11.88;;;6.55;;
25049;SDS011;13046;49.814;9.918;2022-10-18T02:12:51;7.13;;;6.40;;
25049;SDS011;13046;49.814;9.918;2022-10-18T02:15:20;13.75;;;7.97;;
25049;SDS011;13046;49.814;9.918;2022-10-18T02:17:48;13.40;;;6.43;;
25049;SDS011;13046;49.814;9.918;2022-10-18T02:20:15;16.20;;;7.30;;
25049;SDS011;13046;49.814;9.918;2022-10-18T02:22:44;7.80;;;6.00;;
25049;SDS011;13046;49.814;9.918;2022-10-18T02:25:14;11.93;;;7.20;;
25049;SDS011;13046;49.814;9.918;2022-10-18T02:27:41;13.57;;;7.38;;
25049;SDS011;13046;49.814;9.918;2022-10-18T02:30:07;14.02;;;7.65;;
25049;SDS011;13046;49.814;9.918;2022-10-18T02:32:37;14.98;;;7.55;;
25049;SDS011;13046;49.814;9.918;2022-10-18T02:35:05;10.60;;;7.20;;
25049;SDS011;13046;49.814;9.918;2022-10-18T02:37:33;14.43;;;6.88;;
25049;SDS011;13046;49.814;9.918;2022-10-18T02:40:02;9.98;;;7.65;;
25049;SDS011;13046;49.814;9.918;2022-10-18T02:42:32;13.93;;;7.32;;
25049;SDS011;13046;49.814;9.918;2022-10-18T02:44:59;9.82;;;6.57;;
25049;SDS011;13046;49.814;9.918;2022-10-18T02:47:25;9.70;;;6.53;;
25049;SDS011;13046;49.814;9.918;2022-10-18T02:49:51;14.05;;;6.63;;
25049;SDS011;13046;49.814;9.918;2022-10-18T02:52:17;9.77;;;7.20;;
25049;SDS011;13046;49.814;9.918;2022-10-18T02:54:43;8.63;;;6.32;;
25049;SDS011;13046;49.814;9.918;2022-10-18T02:57:09;10.65;;;7.15;;
25049;SDS011;13046;49.814;9.918;2022-10-18T02:59:35;14.38;;;7.13;;
25049;SDS011;13046;49.814;9.918;2022-10-18T03:02:01;9.68;;;6.20;;
25049;SDS011;13046;49.814;9.918;2022-10-18T03:04:27;7.97;;;6.53;;
25049;SDS011;13046;49.814;9.918;2022-10-18T03:06:53;12.75;;;6.50;;
25049;SDS011;13046;49.814;9.918;2022-10-18T03:09:19;8.80;;;7.03;;
25049;SDS011;13046;49.814;9.918;2022-10-18T03:11:45;12.25;;;7.75;;
25049;SDS011;13046;49.814;9.918;2022-10-18T03:14:11;12.73;;;7.60;;
25049;SDS011;13046;49.814;9.918;2022-10-18T03:16:37;16.85;;;7.47;;
25049;SDS011;13046;49.814;9.918;2022-10-18T03:19:03;14.30;;;8.48;;
25049;SDS011;13046;49.814;9.918;2022-10-18T03:21:29;12.07;;;7.82;;
25049;SDS011;13046;49.814;9.918;2022-10-18T03:23:55;16.38;;;9.18;;
25049;SDS011;13046;49.814;9.918;2022-10-18T03:26:22;8.25;;;7.45;;
25049;SDS011;13046;49.814;9.918;2022-10-18T03:28:48;9.50;;;7.68;;
25049;SDS011;13046;49.814;9.918;2022-10-18T03:31:14;17.15;;;7.72;;
25049;SDS011;13046;49.814;9.918;2022-10-18T03:33:40;10.82;;;7.00;;
25049;SDS011;13046;49.814;9.918;2022-10-18T03:36:06;8.48;;;7.53;;
25049;SDS011;13046;49.814;9.918;2022-10-18T03:38:32;14.77;;;7.57;;
25049;SDS011;13046;49.814;9.918;2022-10-18T03:40:58;8.95;;;7.25;;
25049;SDS011;13046;49.814;9.918;2022-10-18T03:43:24;8.52;;;7.47;;
25049;SDS011;13046;49.814;9.918;2022-10-18T03:45:50;9.88;;;8.00;;
25049;SDS011;13046;49.814;9.918;2022-10-18T03:48:17;9.50;;;7.20;;
25049;SDS011;13046;49.814;9.918;2022-10-18T03:50:43;8.38;;;7.55;;
25049;SDS011;13046;49.814;9.918;2022-10-18T03:53:09;15.18;;;8.70;;
25049;SDS011;13046;49.814;9.918;2022-10-18T03:55:35;10.35;;;8.02;;
25049;SDS011;13046;49.814;9.918;2022-10-18T03:58:01;12.80;;;7.15;;
25049;SDS011;13046;49.814;9.918;2022-10-18T04:00:27;12.02;;;6.93;;
25049;SDS011;13046;49.814;9.918;2022-10-18T04:02:53;9.07;;;7.82;;
25049;SDS011;13046;49.814;9.918;2022-10-18T04:05:19;8.45;;;7.35;;
25049;SDS011;13046;49.814;9.918;2022-10-18T04:07:47;13.02;;;7.53;;
25049;SDS011;13046;49.814;9.918;2022-10-18T04:10:13;16.42;;;9.70;;
25049;SDS011;13046;49.814;9.918;2022-10-18T04:12:39;14.15;;;9.02;;
25049;SDS011;13046;49.814;9.918;2022-10-18T04:15:06;16.00;;;9.40;;
25049;SDS011;13046;49.814;9.918;2022-10-18T04:17:32;11.63;;;7.78;;
25049;SDS011;13046;49.814;9.918;2022-10-18T04:19:58;21.98;;;8.02;;
25049;SDS011;13046;49.814;9.918;2022-10-18T04:22:24;15.75;;;9.38;;
25049;SDS011;13046;49.814;9.918;2022-10-18T04:24:50;15.77;;;8.38;;
25049;SDS011;13046;49.814;9.918;2022-10-18T04:27:17;17.75;;;10.70;;
25049;SDS011;13046;49.814;9.918;2022-10-18T04:29:43;16.70;;;9.13;;
25049;SDS011;13046;49.814;9.918;2022-10-18T04:32:09;14.80;;;11.00;;
25049;SDS011;13046;49.814;9.918;2022-10-18T04:34:35;19.05;;;12.80;;
25049;SDS011;13046;49.814;9.918;2022-10-18T04:37:01;13.70;;;12.18;;
25049;SDS011;13046;49.814;9.918;2022-10-18T04:39:27;21.05;;;12.52;;
25049;SDS011;13046;49.814;9.918;2022-10-18T04:41:53;15.07;;;11.27;;
25049;SDS011;13046;49.814;9.918;2022-10-18T04:44:19;10.65;;;9.63;;
25049;SDS011;13046;49.814;9.918;2022-10-18T04:46:45;36.40;;;12.88;;
25049;SDS011;13046;49.814;9.918;2022-10-18T04:49:11;13.98;;;9.20;;
25049;SDS011;13046;49.814;9.918;2022-10-18T04:51:38;14.63;;;8.98;;
25049;SDS011;13046;49.814;9.918;2022-10-18T04:54:04;13.75;;;9.50;;
25049;SDS011;13046;49.814;9.918;2022-10-18T04:56:30;15.73;;;10.57;;
25049;SDS011;13046;49.814;9.918;2022-10-18T04:58:57;11.48;;;8.45;;
25049;SDS011;13046;49.814;9.918;2022-10-18T05:01:23;10.55;;;8.82;;
25049;SDS011;13046;49.814;9.918;2022-10-18T05:03:52;14.57;;;9.00;;
25049;SDS011;13046;49.814;9.918;2022-10-18T05:06:19;13.90;;;9.10;;
25049;SDS011;13046;49.814;9.918;2022-10-18T05:08:45;14.98;;;10.63;;
25049;SDS011;13046;49.814;9.918;2022-10-18T05:11:11;16.15;;;9.32;;
25049;SDS011;13046;49.814;9.918;2022-10-18T05:13:37;14.18;;;9.90;;
25049;SDS011;13046;49.814;9.918;2022-10-18T05:16:03;13.00;;;8.88;;
25049;SDS011;13046;49.814;9.918;2022-10-18T05:18:29;10.10;;;9.10;;
25049;SDS011;13046;49.814;9.918;2022-10-18T05:20:56;13.43;;;9.35;;
25049;SDS011;13046;49.814;9.918;2022-10-18T05:23:22;10.02;;;9.02;;
25049;SDS011;13046;49.814;9.918;2022-10-18T05:25:49;13.07;;;8.55;;
25049;SDS011;13046;49.814;9.918;2022-10-18T05:28:15;12.48;;;9.43;;
25049;SDS011;13046;49.814;9.918;2022-10-18T05:30:41;13.30;;;9.95;;
25049;SDS011;13046;49.814;9.918;2022-10-18T05:33:07;14.57;;;11.13;;
25049;SDS011;13046;49.814;9.918;2022-10-18T05:35:34;19.00;;;9.85;;
25049;SDS011;13046;49.814;9.918;2022-10-18T05:38:04;13.70;;;11.38;;
25049;SDS011;13046;49.814;9.918;2022-10-18T05:40:30;16.98;;;12.68;;
25049;SDS011;13046;49.814;9.918;2022-10-18T05:42:57;14.60;;;9.15;;
25049;SDS011;13046;49.814;9.918;2022-10-18T05:45:23;8.70;;;7.80;;
25049;SDS011;13046;49.814;9.918;2022-10-18T05:47:49;10.43;;;8.32;;
25049;SDS011;13046;49.814;9.918;2022-10-18T05:50:15;13.05;;;8.82;;
25049;SDS011;13046;49.814;9.918;2022-10-18T05:52:41;10.43;;;9.43;;
25049;SDS011;13046;49.814;9.918;2022-10-18T05:55:07;13.80;;;9.52;;
25049;SDS011;13046;49.814;9.918;2022-10-18T05:57:33;21.50;;;9.88;;
25049;SDS011;13046;49.814;9.918;2022-10-18T05:59:59;16.50;;;9.52;;
25049;SDS011;13046;49.814;9.918;2022-10-18T06:02:25;15.60;;;10.40;;
25049;SDS011;13046;49.814;9.918;2022-10-18T06:04:51;13.02;;;8.95;;
25049;SDS011;13046;49.814;9.918;2022-10-18T06:07:17;15.45;;;9.80;;
25049;SDS011;13046;49.814;9.918;2022-10-18T06:09:43;12.77;;;9.60;;
25049;SDS011;13046;49.814;9.918;2022-10-18T06:12:09;13.90;;;9.25;;
25049;SDS011;13046;49.814;9.918;2022-10-18T06:14:35;10.98;;;9.18;;
25049;SDS011;13046;49.814;9.918;2022-10-18T06:17:02;11.50;;;8.85;;
25049;SDS011;13046;49.814;9.918;2022-10-18T06:19:28;15.45;;;9.65;;
25049;SDS011;13046;49.814;9.918;2022-10-18T06:21:54;10.52;;;9.13;;
25049;SDS011;13046;49.814;9.918;2022-10-18T06:24:20;10.55;;;9.35;;
25049;SDS011;13046;49.814;9.918;2022-10-18T06:26:46;22.90;;;14.07;;
25049;SDS011;13046;49.814;9.918;2022-10-18T06:29:13;16.63;;;11.70;;
25049;SDS011;13046;49.814;9.918;2022-10-18T06:31:39;16.70;;;12.60;;
25049;SDS011;13046;49.814;9.918;2022-10-18T06:34:05;15.80;;;11.88;;
25049;SDS011;13046;49.814;9.918;2022-10-18T06:36:31;20.67;;;13.73;;
25049;SDS011;13046;49.814;9.918;2022-10-18T06:38:57;13.48;;;10.02;;
25049;SDS011;13046;49.814;9.918;2022-10-18T06:41:24;18.40;;;11.05;;
25049;SDS011;13046;49.814;9.918;2022-10-18T06:43:51;16.17;;;11.05;;
25049;SDS011;13046;49.814;9.918;2022-10-18T06:46:17;14.82;;;11.30;;
25049;SDS011;13046;49.814;9.918;2022-10-18T06:48:44;13.82;;;10.82;;
25049;SDS011;13046;49.814;9.918;2022-10-18T06:51:10;18.95;;;13.45;;
25049;SDS011;13046;49.814;9.918;2022-10-18T06:53:37;18.20;;;12.73;;
25049;SDS011;13046;49.814;9.918;2022-10-18T06:56:04;15.32;;;12.60;;
25049;SDS011;13046;49.814;9.918;2022-10-18T06:58:30;18.92;;;12.10;;
25049;SDS011;13046;49.814;9.918;2022-10-18T07:00:57;16.67;;;12.30;;
25049;SDS011;13046;49.814;9.918;2022-10-18T07:03:23;15.95;;;12.48;;
25049;SDS011;13046;49.814;9.918;2022-10-18T07:05:50;21.75;;;14.73;;
25049;SDS011;13046;49.814;9.918;2022-10-18T07:08:16;17.77;;;12.88;;
25049;SDS011;13046;49.814;9.918;2022-10-18T07:10:49;13.93;;;11.90;;
25049;SDS011;13046;49.814;9.918;2022-10-18T07:13:16;17.10;;;12.60;;
25049;SDS011;13046;49.814;9.918;2022-10-18T07:15:42;17.23;;;12.38;;
25049;SDS011;13046;49.814;9.918;2022-10-18T07:18:08;15.57;;;12.52;;
25049;SDS011;13046;49.814;9.918;2022-10-18T07:20:34;14.25;;;12.27;;
25049;SDS011;13046;49.814;9.918;2022-10-18T07:23:00;12.48;;;11.18;;
25049;SDS011;13046;49.814;9.918;2022-10-18T07:25:26;15.88;;;14.00;;
25049;SDS011;13046;49.814;9.918;2022-10-18T07:27:52;18.67;;;13.73;;
25049;SDS011;13046;49.814;9.918;2022-10-18T07:30:18;15.32;;;12.20;;
25049;SDS011;13046;49.814;9.918;2022-10-18T07:32:44;17.20;;;12.98;;
25049;SDS011;13046;49.814;9.918;2022-10-18T07:35:10;14.43;;;13.02;;
25049;SDS011;13046;49.814;9.918;2022-10-18T07:37:36;18.95;;;13.00;;
25049;SDS011;13046;49.814;9.918;2022-10-18T07:40:02;20.63;;;14.15;;
25049;SDS011;13046;49.814;9.918;2022-10-18T07:42:28;24.45;;;14.65;;
25049;SDS011;13046;49.814;9.918;2022-10-18T07:44:54;17.20;;;13.15;;
25049;SDS011;13046;49.814;9.918;2022-10-18T07:47:20;17.92;;;13.35;;
25049;SDS011;13046;49.814;9.918;2022-10-18T07:49:46;16.30;;;12.98;;
25049;SDS011;13046;49.814;9.918;2022-10-18T07:52:12;16.45;;;14.75;;
25049;SDS011;13046;49.814;9.918;2022-10-18T07:54:38;17.40;;;15.38;;
25049;SDS011;13046;49.814;9.918;2022-10-18T07:57:04;17.65;;;14.95;;
25049;SDS011;13046;49.814;9.918;2022-10-18T07:59:30;19.23;;;14.63;;
25049;SDS011;13046;49.814;9.918;2022-10-18T08:01:56;20.17;;;15.98;;
25049;SDS011;13046;49.814;9.918;2022-10-18T08:04:22;15.38;;;12.93;;
25049;SDS011;13046;49.814;9.918;2022-10-18T08:06:48;16.70;;;11.68;;
25049;SDS011;13046;49.814;9.918;2022-10-18T08:09:14;25.25;;;14.30;;
25049;SDS011;13046;49.814;9.918;2022-10-18T08:11:40;20.48;;;13.25;;
25049;SDS011;13046;49.814;9.918;2022-10-18T08:14:06;14.90;;;11.85;;
25049;SDS011;13046;49.814;9.918;2022-10-18T08:16:32;12.30;;;11.13;;
25049;SDS011;13046;49.814;9.918;2022-10-18T08:18:58;14.45;;;12.35;;
25049;SDS011;13046;49.814;9.918;2022-10-18T08:21:24;14.68;;;12.43;;
25049;SDS011;13046;49.814;9.918;2022-10-18T08:23:51;17.20;;;13.45;;
25049;SDS011;13046;49.814;9.918;2022-10-18T08:26:18;16.95;;;13.82;;
25049;SDS011;13046;49.814;9.918;2022-10-18T08:28:47;17.48;;;15.40;;
25049;SDS011;13046;49.814;9.918;2022-10-18T08:31:14;18.05;;;15.10;;
25049;SDS011;13046;49.814;9.918;2022-10-18T08:33:41;19.75;;;13.73;;
25049;SDS011;13046;49.814;9.918;2022-10-18T08:36:08;16.55;;;13.27;;
25049;SDS011;13046;49.814;9.918;2022-10-18T08:38:36;14.55;;;12.90;;
25049;SDS011;13046;49.814;9.918;2022-10-18T08:43:54;16.15;;;13.95;;
25049;SDS011;13046;49.814;9.918;2022-10-18T08:46:21;18.15;;;14.30;;
25049;SDS011;13046;49.814;9.918;2022-10-18T08:48:47;21.70;;;13.70;;
25049;SDS011;13046;49.814;9.918;2022-10-18T08:52:00;19.25;;;13.65;;
25049;SDS011;13046;49.814;9.918;2022-10-18T08:57:00;16.33;;;14.50;;
25049;SDS011;13046;49.814;9.918;2022-10-18T08:59:28;23.63;;;14.55;;
25049;SDS011;13046;49.814;9.918;2022-10-18T09:04:26;22.35;;;18.77;;
25049;SDS011;13046;49.814;9.918;2022-10-18T09:19:32;25.83;;;16.38;;
25049;SDS011;13046;49.814;9.918;2022-10-18T09:22:13;19.63;;;14.93;;
25049;SDS011;13046;49.814;9.918;2022-10-18T09:24:40;23.70;;;15.63;;
25049;SDS011;13046;49.814;9.918;2022-10-18T09:27:11;21.95;;;15.95;;
25049;SDS011;13046;49.814;9.918;2022-10-18T09:29:53;20.40;;;15.02;;
25049;SDS011;13046;49.814;9.918;2022-10-18T09:35:13;32.35;;;22.67;;
25049;SDS011;13046;49.814;9.918;2022-10-18T09:37:40;29.45;;;22.38;;
25049;SDS011;13046;49.814;9.918;2022-10-18T09:40:27;28.52;;;20.63;;
25049;SDS011;13046;49.814;9.918;2022-10-18T09:43:09;25.55;;;19.52;;
25049;SDS011;13046;49.814;9.918;2022-10-18T09:45:38;30.23;;;19.63;;
25049;SDS011;13046;49.814;9.918;2022-10-18T09:48:22;26.27;;;18.10;;
25049;SDS011;13046;49.814;9.918;2022-10-18T09:56:04;20.50;;;17.50;;
25049;SDS011;13046;49.814;9.918;2022-10-18T09:58:39;25.90;;;16.67;;
25049;SDS011;13046;49.814;9.918;2022-10-18T10:01:06;17.65;;;14.77;;
25049;SDS011;13046;49.814;9.918;2022-10-18T10:03:33;18.63;;;15.80;;
25049;SDS011;13046;49.814;9.918;2022-10-18T10:08:46;16.45;;;14.52;;
25049;SDS011;13046;49.814;9.918;2022-10-18T10:11:25;16.65;;;14.45;;
25049;SDS011;13046;49.814;9.918;2022-10-18T10:13:55;21.45;;;15.98;;
25049;SDS011;13046;49.814;9.918;2022-10-18T10:16:22;20.35;;;15.88;;
25049;SDS011;13046;49.814;9.918;2022-10-18T10:18:51;23.75;;;15.95;;
25049;SDS011;13046;49.814;9.918;2022-10-18T10:21:18;19.15;;;16.05;;
25049;SDS011;13046;49.814;9.918;2022-10-18T10:23:52;31.63;;;15.52;;
25049;SDS011;13046;49.814;9.918;2022-10-18T10:26:32;17.45;;;15.23;;
25049;SDS011;13046;49.814;9.918;2022-10-18T10:28:59;20.23;;;16.48;;
25049;SDS011;13046;49.814;9.918;2022-10-18T10:31:31;21.08;;;15.25;;
25049;SDS011;13046;49.814;9.918;2022-10-18T10:34:00;19.08;;;14.23;;
25049;SDS011;13046;49.814;9.918;2022-10-18T10:36:27;16.40;;;14.73;;
25049;SDS011;13046;49.814;9.918;2022-10-18T10:41:34;18.10;;;14.77;;
25049;SDS011;13046;49.814;9.918;2022-10-18T10:44:01;19.98;;;14.50;;
25049;SDS011;13046;49.814;9.918;2022-10-18T10:46:34;20.08;;;14.70;;
25049;SDS011;13046;49.814;9.918;2022-10-18T10:49:01;21.83;;;15.90;;
25049;SDS011;13046;49.814;9.918;2022-10-18T10:51:37;17.45;;;15.23;;
25049;SDS011;13046;49.814;9.918;2022-10-18T10:56:33;14.00;;;12.25;;
25049;SDS011;13046;49.814;9.918;2022-10-18T10:59:07;14.50;;;12.77;;
25049;SDS011;13046;49.814;9.918;2022-10-18T11:01:34;15.50;;;12.50;;
25049;SDS011;13046;49.814;9.918;2022-10-18T11:04:02;19.95;;;14.20;;
25049;SDS011;13046;49.814;9.918;2022-10-18T11:07:05;14.65;;;12.80;;
25049;SDS011;13046;49.814;9.918;2022-10-18T11:09:47;15.68;;;11.80;;
25049;SDS011;13046;49.814;9.918;2022-10-18T11:12:22;13.88;;;11.63;;
25049;SDS011;13046;49.814;9.918;2022-10-18T11:14:52;18.80;;;12.63;;
25049;SDS011;13046;49.814;9.918;2022-10-18T11:17:22;15.63;;;12.30;;
25049;SDS011;13046;49.814;9.918;2022-10-18T11:22:41;14.07;;;12.65;;
25049;SDS011;13046;49.814;9.918;2022-10-18T11:25:11;15.43;;;12.32;;
25049;SDS011;13046;49.814;9.918;2022-10-18T11:27:43;14.75;;;11.82;;
25049;SDS011;13046;49.814;9.918;2022-10-18T11:30:20;15.80;;;13.02;;
25049;SDS011;13046;49.814;9.918;2022-10-18T11:32:55;12.52;;;11.35;;
25049;SDS011;13046;49.814;9.918;2022-10-18T11:37:55;20.40;;;13.30;;
25049;SDS011;13046;49.814;9.918;2022-10-18T11:43:11;13.93;;;12.27;;
25049;SDS011;13046;49.814;9.918;2022-10-18T11:53:41;13.93;;;12.63;;
25049;SDS011;13046;49.814;9.918;2022-10-18T11:58:44;14.07;;;12.68;;
25049;SDS011;13046;49.814;9.918;2022-10-18T12:01:22;13.20;;;11.90;;
25049;SDS011;13046;49.814;9.918;2022-10-18T12:06:23;15.95;;;12.02;;
25049;SDS011;13046;49.814;9.918;2022-10-18T12:08:54;14.82;;;11.77;;
25049;SDS011;13046;49.814;9.918;2022-10-18T12:13:53;13.23;;;11.10;;
25049;SDS011;13046;49.814;9.918;2022-10-18T12:16:22;15.68;;;12.40;;
25049;SDS011;13046;49.814;9.918;2022-10-18T12:18:52;13.35;;;12.05;;
25049;SDS011;13046;49.814;9.918;2022-10-18T12:21:22;10.85;;;9.38;;
25049;SDS011;13046;49.814;9.918;2022-10-18T12:23:50;12.98;;;10.07;;
25049;SDS011;13046;49.814;9.918;2022-10-18T12:26:17;13.18;;;9.90;;
25049;SDS011;13046;49.814;9.918;2022-10-18T12:28:53;11.30;;;10.13;;
25049;SDS011;13046;49.814;9.918;2022-10-18T12:31:23;30.88;;;11.82;;
25049;SDS011;13046;49.814;9.918;2022-10-18T12:33:54;15.30;;;10.43;;
25049;SDS011;13046;49.814;9.918;2022-10-18T12:38:55;11.10;;;9.75;;
25049;SDS011;13046;49.814;9.918;2022-10-18T12:41:27;14.13;;;9.88;;
25049;SDS011;13046;49.814;9.918;2022-10-18T12:46:46;11.45;;;9.90;;
25049;SDS011;13046;49.814;9.918;2022-10-18T12:49:13;11.68;;;8.93;;
25049;SDS011;13046;49.814;9.918;2022-10-18T12:51:49;12.52;;;10.18;;
25049;SDS011;13046;49.814;9.918;2022-10-18T12:54:16;17.73;;;11.10;;
25049;SDS011;13046;49.814;9.918;2022-10-18T12:56:43;11.00;;;10.00;;
25049;SDS011;13046;49.814;9.918;2022-10-18T13:02:23;11.20;;;10.10;;
25049;SDS011;13046;49.814;9.918;2022-10-18T13:09:26;11.38;;;8.65;;
25049;SDS011;13046;49.814;9.918;2022-10-18T13:11:55;12.23;;;8.82;;
25049;SDS011;13046;49.814;9.918;2022-10-18T13:14:43;9.02;;;7.85;;
25049;SDS011;13046;49.814;9.918;2022-10-18T13:22:30;8.32;;;7.50;;
25049;SDS011;13046;49.814;9.918;2022-10-18T13:25:13;9.07;;;6.50;;
25049;SDS011;13046;49.814;9.918;2022-10-18T13:33:34;7.75;;;5.35;;
25049;SDS011;13046;49.814;9.918;2022-10-18T13:41:01;3.70;;;3.40;;
25049;SDS011;13046;49.814;9.918;2022-10-18T13:43:50;6.72;;;3.78;;
25049;SDS011;13046;49.814;9.918;2022-10-18T13:54:28;2.40;;;2.22;;
25049;SDS011;13046;49.814;9.918;2022-10-18T13:57:04;4.55;;;2.40;;
25049;SDS011;13046;49.814;9.918;2022-10-18T13:59:39;2.88;;;2.60;;
25049;SDS011;13046;49.814;9.918;2022-10-18T14:07:09;2.58;;;2.10;;
25049;SDS011;13046;49.814;9.918;2022-10-18T14:09:45;2.67;;;2.47;;
25049;SDS011;13046;49.814;9.918;2022-10-18T14:14:50;4.38;;;3.35;;
25049;SDS011;13046;49.814;9.918;2022-10-18T14:17:26;4.63;;;2.75;;
25049;SDS011;13046;49.814;9.918;2022-10-18T14:19:53;2.55;;;1.95;;
25049;SDS011;13046;49.814;9.918;2022-10-18T14:22:22;2.30;;;1.98;;
25049;SDS011;13046;49.814;9.918;2022-10-18T14:24:53;2.67;;;2.00;;
25049;SDS011;13046;49.814;9.918;2022-10-18T14:27:21;4.13;;;2.33;;
25049;SDS011;13046;49.814;9.918;2022-10-18T14:29:47;6.13;;;2.22;;
25049;SDS011;13046;49.814;9.918;2022-10-18T14:32:21;2.90;;;1.90;;
25049;SDS011;13046;49.814;9.918;2022-10-18T14:34:48;6.55;;;4.85;;
25049;SDS011;13046;49.814;9.918;2022-10-18T14:37:32;5.25;;;2.53;;
25049;SDS011;13046;49.814;9.918;2022-10-18T14:42:25;1.98;;;1.70;;
25049;SDS011;13046;49.814;9.918;2022-10-18T14:44:51;4.88;;;1.77;;
25049;SDS011;13046;49.814;9.918;2022-10-18T14:47:22;2.15;;;1.90;;
25049;SDS011;13046;49.814;9.918;2022-10-18T14:49:48;4.05;;;2.42;;
25049;SDS011;13046;49.814;9.918;2022-10-18T14:52:18;1.80;;;1.70;;
25049;SDS011;13046;49.814;9.918;2022-10-18T14:54:45;2.10;;;1.85;;
25049;SDS011;13046;49.814;9.918;2022-10-18T14:57:44;1.98;;;1.70;;
25049;SDS011;13046;49.814;9.918;2022-10-18T15:00:05;1.98;;;1.88;;
25049;SDS011;13046;49.814;9.918;2022-10-18T15:02:34;3.50;;;1.80;;
25049;SDS011;13046;49.814;9.918;2022-10-18T15:05:17;2.78;;;1.90;;
25049;SDS011;13046;49.814;9.918;2022-10-18T15:07:44;2.30;;;2.10;;
25049;SDS011;13046;49.814;9.918;2022-10-18T15:10:15;2.40;;;2.20;;
25049;SDS011;13046;49.814;9.918;2022-10-18T15:12:41;1.83;;;1.73;;
25049;SDS011;13046;49.814;9.918;2022-10-18T15:15:23;5.20;;;2.50;;
25049;SDS011;13046;49.814;9.918;2022-10-18T15:17:50;2.22;;;1.90;;
25049;SDS011;13046;49.814;9.918;2022-10-18T15:20:24;3.92;;;1.95;;
25049;SDS011;13046;49.814;9.918;2022-10-18T15:22:51;4.30;;;2.80;;
25049;SDS011;13046;49.814;9.918;2022-10-18T15:25:24;3.53;;;2.35;;
25049;SDS011;13046;49.814;9.918;2022-10-18T15:27:53;3.33;;;2.15;;
25049;SDS011;13046;49.814;9.918;2022-10-18T15:30:27;9.85;;;3.60;;
25049;SDS011;13046;49.814;9.918;2022-10-18T15:32:54;11.73;;;2.30;;
25049;SDS011;13046;49.814;9.918;2022-10-18T15:35:23;2.42;;;2.22;;
25049;SDS011;13046;49.814;9.918;2022-10-18T15:37:49;4.45;;;2.50;;
25049;SDS011;13046;49.814;9.918;2022-10-18T15:42:55;3.25;;;2.20;;
25049;SDS011;13046;49.814;9.918;2022-10-18T15:50:40;3.50;;;3.20;;
25049;SDS011;13046;49.814;9.918;2022-10-18T15:53:52;3.38;;;3.17;;
25049;SDS011;13046;49.814;9.918;2022-10-18T15:58:35;2.85;;;2.65;;
25049;SDS011;13046;49.814;9.918;2022-10-18T16:01:03;6.97;;;3.13;;
25049;SDS011;13046;49.814;9.918;2022-10-18T16:03:31;11.65;;;3.97;;
25049;SDS011;13046;49.814;9.918;2022-10-18T16:05:59;3.03;;;2.72;;
25049;SDS011;13046;49.814;9.918;2022-10-18T16:08:28;3.25;;;2.97;;
25049;SDS011;13046;49.814;9.918;2022-10-18T16:11:01;8.15;;;2.55;;
25049;SDS011;13046;49.814;9.918;2022-10-18T16:13:27;2.40;;;2.28;;
25049;SDS011;13046;49.814;9.918;2022-10-18T16:15:53;7.03;;;2.83;;
25049;SDS011;13046;49.814;9.918;2022-10-18T16:18:23;6.55;;;2.50;;
25049;SDS011;13046;49.814;9.918;2022-10-18T16:20:49;5.15;;;2.97;;
25049;SDS011;13046;49.814;9.918;2022-10-18T16:23:17;4.90;;;3.20;;
25049;SDS011;13046;49.814;9.918;2022-10-18T16:25:43;5.80;;;2.75;;
25049;SDS011;13046;49.814;9.918;2022-10-18T16:28:13;7.70;;;2.70;;
25049;SDS011;13046;49.814;9.918;2022-10-18T16:30:39;5.22;;;3.20;;
25049;SDS011;13046;49.814;9.918;2022-10-18T16:33:07;9.55;;;6.38;;
25049;SDS011;13046;49.814;9.918;2022-10-18T16:35:33;38.65;;;24.35;;
25049;SDS011;13046;49.814;9.918;2022-10-18T16:38:00;28.95;;;16.77;;
25049;SDS011;13046;49.814;9.918;2022-10-18T16:40:26;33.08;;;20.95;;
25049;SDS011;13046;49.814;9.918;2022-10-18T16:42:52;19.98;;;10.38;;
25049;SDS011;13046;49.814;9.918;2022-10-18T16:45:18;22.05;;;13.05;;
25049;SDS011;13046;49.814;9.918;2022-10-18T16:47:44;31.17;;;23.38;;
25049;SDS011;13046;49.814;9.918;2022-10-18T16:50:11;19.20;;;14.13;;
25049;SDS011;13046;49.814;9.918;2022-10-18T16:52:38;8.05;;;6.38;;
25049;SDS011;13046;49.814;9.918;2022-10-18T16:55:04;13.30;;;5.13;;
25049;SDS011;13046;49.814;9.918;2022-10-18T16:57:38;10.15;;;3.67;;
25049;SDS011;13046;49.814;9.918;2022-10-18T17:00:05;5.80;;;3.10;;
25049;SDS011;13046;49.814;9.918;2022-10-18T17:02:31;7.75;;;3.35;;
25049;SDS011;13046;49.814;9.918;2022-10-18T17:04:57;12.05;;;8.20;;
25049;SDS011;13046;49.814;9.918;2022-10-18T17:07:23;15.55;;;9.52;;